Time;durP1;ratioP1;P1;durP2;ratioP2;P2;SDS_P1;SDS_P2;PMS_P1;PMS_P2;Temp;Humidity;BMP_temperature;BMP_pressure;BME280_temperature;BME280_humidity;BME280_pressure;Samples;Min_cycle;Max_cycle;Signal;HPM_P1;HPM_P2
2021/08/15 00:01:06;;;;;;;7.72;4.60;;;;;;;;;;5066637;28;20522;-78
2021/08/15 00:03:32;;;;;;;7.60;4.40;;;;;;;;;;5050492;28;20029;-78
2021/08/15 00:05:57;;;;;;;6.07;4.15;;;;;;;;;;5049947;28;20033;-78
2021/08/15 00:08:23;;;;;;;6.90;4.28;;;;;;;;;;5050193;28;20445;-78
2021/08/15 00:10:48;;;;;;;8.82;5.07;;;;;;;;;;5033875;28;20045;-78
2021/08/15 00:13:14;;;;;;;7.63;4.15;;;;;;;;;;5050203;28;20037;-78
2021/08/15 00:15:40;;;;;;;6.15;4.40;;;;;;;;;;5050083;28;20108;-78
2021/08/15 00:18:05;;;;;;;8.15;4.75;;;;;;;;;;5017384;28;20112;-78
2021/08/15 00:20:31;;;;;;;7.43;4.60;;;;;;;;;;5033904;28;20127;-78
2021/08/15 00:22:56;;;;;;;7.18;4.30;;;;;;;;;;5049546;28;20037;-77
2021/08/15 00:25:21;;;;;;;6.63;3.95;;;;;;;;;;5067166;28;20049;-78
2021/08/15 00:27:47;;;;;;;5.85;3.95;;;;;;;;;;5066989;28;20041;-78
2021/08/15 00:30:16;;;;;;;8.45;4.65;;;;;;;;;;5032933;28;20039;-78
2021/08/15 00:32:43;;;;;;;6.22;3.90;;;;;;;;;;5050101;28;20037;-78
2021/08/15 00:35:08;;;;;;;8.20;4.68;;;;;;;;;;5066723;28;20106;-78
2021/08/15 00:37:35;;;;;;;8.63;4.70;;;;;;;;;;5050330;28;20072;-77
2021/08/15 00:40:00;;;;;;;7.10;4.30;;;;;;;;;;5033223;28;20037;-78
2021/08/15 00:42:26;;;;;;;8.10;4.68;;;;;;;;;;5017010;28;20037;-78
2021/08/15 00:44:52;;;;;;;5.93;4.47;;;;;;;;;;5040171;28;20067;-78
2021/08/15 00:47:17;;;;;;;7.82;4.72;;;;;;;;;;5018380;28;20031;-78
2021/08/15 00:49:43;;;;;;;6.50;4.18;;;;;;;;;;5037539;28;20041;-78
2021/08/15 00:52:08;;;;;;;7.00;5.05;;;;;;;;;;5036790;28;20041;-78
2021/08/15 00:54:34;;;;;;;7.18;4.28;;;;;;;;;;5037443;28;20041;-77
2021/08/15 00:56:59;;;;;;;6.72;4.25;;;;;;;;;;5020379;28;20033;-78
2021/08/15 00:59:25;;;;;;;6.75;4.40;;;;;;;;;;5020743;28;20548;-77
2021/08/15 01:01:51;;;;;;;6.75;4.78;;;;;;;;;;5003924;28;20037;-78
2021/08/15 01:04:16;;;;;;;7.25;4.25;;;;;;;;;;5020545;28;20044;-78
2021/08/15 01:06:42;;;;;;;6.47;3.85;;;;;;;;;;5020134;28;20025;-78
2021/08/15 01:09:07;;;;;;;7.35;4.35;;;;;;;;;;5004086;28;20036;-78
2021/08/15 01:11:33;;;;;;;7.95;4.85;;;;;;;;;;5020070;28;20033;-78
2021/08/15 01:14:02;;;;;;;6.97;4.93;;;;;;;;;;5003850;28;20498;-78
2021/08/15 01:16:28;;;;;;;8.35;4.78;;;;;;;;;;5036874;28;20056;-78
2021/08/15 01:18:53;;;;;;;7.38;4.60;;;;;;;;;;5020485;28;20037;-78
2021/08/15 01:21:19;;;;;;;8.18;5.07;;;;;;;;;;5003775;28;20033;-78
2021/08/15 01:23:45;;;;;;;7.97;4.80;;;;;;;;;;5036400;28;20032;-78
2021/08/15 01:26:12;;;;;;;7.30;4.82;;;;;;;;;;5036684;28;20113;-78
2021/08/15 01:28:38;;;;;;;7.40;4.57;;;;;;;;;;5003900;28;20124;-78
2021/08/15 01:31:03;;;;;;;7.85;4.80;;;;;;;;;;5020015;28;20100;-78
2021/08/15 01:33:30;;;;;;;8.52;4.28;;;;;;;;;;5020119;28;20123;-78
2021/08/15 01:35:56;;;;;;;7.53;4.45;;;;;;;;;;5003307;28;20036;-78
2021/08/15 01:38:23;;;;;;;7.00;4.70;;;;;;;;;;5036399;28;20104;-78
2021/08/15 01:40:48;;;;;;;7.13;4.88;;;;;;;;;;5019924;28;20044;-78
2021/08/15 01:43:14;;;;;;;7.72;4.82;;;;;;;;;;5019338;28;20407;-78
2021/08/15 01:45:39;;;;;;;7.45;4.50;;;;;;;;;;5046795;28;20037;-79
2021/08/15 01:48:05;;;;;;;7.53;5.10;;;;;;;;;;5034403;28;20037;-78
2021/08/15 01:50:30;;;;;;;9.65;4.65;;;;;;;;;;5019665;28;20522;-78
2021/08/15 01:52:58;;;;;;;8.07;4.60;;;;;;;;;;5035793;28;20040;-78
2021/08/15 01:55:23;;;;;;;7.15;4.53;;;;;;;;;;5052599;28;20029;-78
2021/08/15 01:57:49;;;;;;;7.28;4.32;;;;;;;;;;5052319;28;20503;-77
2021/08/15 02:00:15;;;;;;;7.50;5.18;;;;;;;;;;5051913;28;20411;-78
2021/08/15 02:02:43;;;;;;;7.43;4.35;;;;;;;;;;5036106;28;20396;-77
2021/08/15 02:05:18;;;;;;;6.78;4.28;;;;;;;;;;5069076;28;20400;-78
2021/08/15 02:07:44;;;;;;;6.57;4.85;;;;;;;;;;5036641;28;20037;-78
2021/08/15 02:10:09;;;;;;;6.63;4.65;;;;;;;;;;5035503;28;20040;-77
2021/08/15 02:12:35;;;;;;;7.28;4.25;;;;;;;;;;5052239;28;20392;-78
2021/08/15 02:15:00;;;;;;;7.45;4.68;;;;;;;;;;5052150;28;20384;-78
2021/08/15 02:17:25;;;;;;;5.85;3.95;;;;;;;;;;5035596;28;20592;-78
2021/08/15 02:19:51;;;;;;;5.88;4.10;;;;;;;;;;5019014;28;20032;-78
2021/08/15 02:22:16;;;;;;;7.93;4.65;;;;;;;;;;5018756;28;20407;-77
2021/08/15 02:24:42;;;;;;;8.52;4.43;;;;;;;;;;5035430;28;20055;-78
2021/08/15 02:27:07;;;;;;;6.40;4.05;;;;;;;;;;5018198;28;20037;-78
2021/08/15 02:29:33;;;;;;;6.38;3.90;;;;;;;;;;5035439;28;20032;-77
2021/08/15 02:31:58;;;;;;;6.18;4.20;;;;;;;;;;5019025;28;20039;-78
2021/08/15 02:34:25;;;;;;;7.53;4.50;;;;;;;;;;5035292;28;20112;-78
2021/08/15 02:36:51;;;;;;;7.03;4.35;;;;;;;;;;5002509;28;20051;-78
2021/08/15 02:39:16;;;;;;;5.90;4.18;;;;;;;;;;5034692;28;20533;-78
2021/08/15 02:41:41;;;;;;;7.38;4.57;;;;;;;;;;5018643;28;20102;-78
2021/08/15 02:44:07;;;;;;;8.68;4.68;;;;;;;;;;5036137;28;20032;-78
2021/08/15 02:46:33;;;;;;;9.02;4.65;;;;;;;;;;5054859;28;20033;-78
2021/08/15 02:48:58;;;;;;;6.93;4.60;;;;;;;;;;5051629;28;20029;-78
2021/08/15 02:51:23;;;;;;;7.13;4.07;;;;;;;;;;5051615;28;20041;-78
2021/08/15 02:53:50;;;;;;;6.38;3.88;;;;;;;;;;5034853;28;20551;-78
2021/08/15 02:56:16;;;;;;;6.60;3.90;;;;;;;;;;5018026;28;20071;-78
2021/08/15 02:58:41;;;;;;;7.50;4.35;;;;;;;;;;5002234;28;20039;-78
2021/08/15 03:01:07;;;;;;;5.45;3.78;;;;;;;;;;5018414;28;20036;-78
2021/08/15 03:03:32;;;;;;;5.78;3.75;;;;;;;;;;5034856;28;20033;-78
2021/08/15 03:05:58;;;;;;;7.10;3.55;;;;;;;;;;5001609;28;20111;-77
2021/08/15 03:08:23;;;;;;;5.78;3.25;;;;;;;;;;5017778;28;20116;-78
2021/08/15 03:10:49;;;;;;;6.70;3.97;;;;;;;;;;5034318;28;20047;-77
2021/08/15 03:13:14;;;;;;;5.82;3.70;;;;;;;;;;5051122;28;20434;-78
2021/08/15 03:15:40;;;;;;;4.90;3.58;;;;;;;;;;5034291;28;20491;-78
2021/08/15 03:18:06;;;;;;;6.93;3.65;;;;;;;;;;5033014;28;20491;-78
2021/08/15 03:20:31;;;;;;;5.70;3.55;;;;;;;;;;5016775;28;20152;-78
2021/08/15 03:22:56;;;;;;;6.47;3.58;;;;;;;;;;5001010;28;20496;-78
2021/08/15 03:25:22;;;;;;;5.68;3.63;;;;;;;;;;5033922;28;20039;-78
2021/08/15 03:27:47;;;;;;;6.65;3.95;;;;;;;;;;5018222;28;20120;-78
2021/08/15 03:30:13;;;;;;;6.68;4.10;;;;;;;;;;5001742;28;20037;-78
2021/08/15 03:32:38;;;;;;;6.05;3.15;;;;;;;;;;5034405;28;20060;-78
2021/08/15 03:35:04;;;;;;;7.10;3.45;;;;;;;;;;5034130;28;20039;-78
2021/08/15 03:37:30;;;;;;;7.72;4.15;;;;;;;;;;5034206;28;20037;-78
2021/08/15 03:39:56;;;;;;;5.10;3.35;;;;;;;;;;5016475;28;20327;-78
2021/08/15 03:42:21;;;;;;;5.68;3.55;;;;;;;;;;5001373;28;20049;-78
2021/08/15 03:44:46;;;;;;;4.85;3.03;;;;;;;;;;5004431;28;20045;-78
2021/08/15 03:47:12;;;;;;;5.43;3.20;;;;;;;;;;5059075;28;20036;-78
2021/08/15 03:49:37;;;;;;;6.25;3.55;;;;;;;;;;5017518;28;20033;-78
2021/08/15 03:52:03;;;;;;;6.15;3.78;;;;;;;;;;5017651;28;20040;-78
2021/08/15 03:54:28;;;;;;;5.63;3.58;;;;;;;;;;5050310;28;20032;-78
2021/08/15 03:56:54;;;;;;;6.90;3.85;;;;;;;;;;5050621;28;20116;-78
2021/08/15 03:59:21;;;;;;;6.43;3.65;;;;;;;;;;5033631;28;20048;-78
2021/08/15 04:01:46;;;;;;;6.55;4.00;;;;;;;;;;5001433;28;20483;-78
2021/08/15 04:04:12;;;;;;;6.25;3.58;;;;;;;;;;5033483;28;20037;-78
2021/08/15 04:06:37;;;;;;;5.57;3.75;;;;;;;;;;5016756;28;20044;-78
2021/08/15 04:09:03;;;;;;;6.93;4.03;;;;;;;;;;5000731;28;20037;-78
2021/08/15 04:11:28;;;;;;;9.75;3.88;;;;;;;;;;5050228;28;20056;-78
2021/08/15 04:13:54;;;;;;;5.63;3.45;;;;;;;;;;5024212;28;20028;-78
2021/08/15 04:16:19;;;;;;;5.50;3.35;;;;;;;;;;5053994;28;20038;-78
2021/08/15 04:18:45;;;;;;;6.00;3.20;;;;;;;;;;5037484;28;20390;-78
2021/08/15 04:21:12;;;;;;;4.97;3.13;;;;;;;;;;5037662;28;20032;-78
2021/08/15 04:23:38;;;;;;;6.88;3.47;;;;;;;;;;5040336;28;20406;-77
2021/08/15 04:26:03;;;;;;;5.05;2.90;;;;;;;;;;5057694;28;20409;-78
2021/08/15 04:28:29;;;;;;;7.07;3.35;;;;;;;;;;5024823;28;20024;-78
2021/08/15 04:30:54;;;;;;;6.75;3.60;;;;;;;;;;5040877;28;20036;-77
2021/08/15 04:33:21;;;;;;;8.00;3.58;;;;;;;;;;5041022;28;20111;-78
2021/08/15 04:35:47;;;;;;;6.38;3.10;;;;;;;;;;5024167;28;20055;-78
2021/08/15 04:38:12;;;;;;;5.38;3.20;;;;;;;;;;5040616;28;20097;-78
2021/08/15 04:40:38;;;;;;;5.32;3.10;;;;;;;;;;5040645;28;20510;-78
2021/08/15 04:43:03;;;;;;;5.75;3.42;;;;;;;;;;5040793;28;20037;-78
2021/08/15 04:45:29;;;;;;;5.72;2.90;;;;;;;;;;5057561;28;20039;-78
2021/08/15 04:47:54;;;;;;;5.63;3.53;;;;;;;;;;5053959;28;20459;-78
2021/08/15 04:50:20;;;;;;;6.38;2.67;;;;;;;;;;5020678;28;20475;-78
2021/08/15 04:52:45;;;;;;;5.43;3.10;;;;;;;;;;5036885;28;20032;-78
2021/08/15 04:55:12;;;;;;;5.13;3.33;;;;;;;;;;5037166;28;20039;-78
2021/08/15 04:57:37;;;;;;;6.55;3.67;;;;;;;;;;5004608;28;20045;-78
2021/08/15 05:00:04;;;;;;;5.60;3.38;;;;;;;;;;5020815;28;20102;-78
2021/08/15 05:02:29;;;;;;;5.05;3.17;;;;;;;;;;5020843;28;20033;-78
2021/08/15 05:04:54;;;;;;;5.82;3.38;;;;;;;;;;5036854;28;20219;-78
2021/08/15 05:07:20;;;;;;;4.72;3.13;;;;;;;;;;5020349;28;20044;-78
2021/08/15 05:09:45;;;;;;;6.15;3.58;;;;;;;;;;5020095;28;20037;-78
2021/08/15 05:12:11;;;;;;;6.00;3.08;;;;;;;;;;5037320;28;20112;-78
2021/08/15 05:14:36;;;;;;;4.93;2.88;;;;;;;;;;5050077;28;20048;-81
2021/08/15 05:17:02;;;;;;;5.18;2.80;;;;;;;;;;5023683;28;20040;-79
2021/08/15 05:19:30;;;;;;;9.02;3.47;;;;;;;;;;5056767;28;20032;-79
2021/08/15 05:21:56;;;;;;;5.05;3.42;;;;;;;;;;5023988;28;20398;-78
2021/08/15 05:24:21;;;;;;;4.75;2.92;;;;;;;;;;5040228;28;20081;-77
2021/08/15 05:26:47;;;;;;;5.55;3.17;;;;;;;;;;5052468;28;20036;-78
2021/08/15 05:29:12;;;;;;;10.35;3.35;;;;;;;;;;5053920;28;20402;-78
2021/08/15 05:31:37;;;;;;;6.90;3.00;;;;;;;;;;5055343;28;20029;-78
2021/08/15 05:34:03;;;;;;;7.22;3.00;;;;;;;;;;5022939;28;20035;-78
2021/08/15 05:36:29;;;;;;;5.20;2.88;;;;;;;;;;5023261;28;20028;-78
2021/08/15 05:38:54;;;;;;;6.25;3.00;;;;;;;;;;5039597;28;20032;-78
2021/08/15 05:41:20;;;;;;;5.20;3.30;;;;;;;;;;5056117;28;20036;-78
2021/08/15 05:43:45;;;;;;;7.22;3.33;;;;;;;;;;5023231;28;20032;-78
2021/08/15 05:46:11;;;;;;;7.55;2.72;;;;;;;;;;5056095;28;20406;-78
2021/08/15 05:48:37;;;;;;;5.03;3.15;;;;;;;;;;5019275;28;20499;-78
2021/08/15 05:51:05;;;;;;;5.07;2.85;;;;;;;;;;5052671;28;20041;-78
2021/08/15 05:53:30;;;;;;;6.40;2.80;;;;;;;;;;5052275;28;20483;-78
2021/08/15 05:55:56;;;;;;;7.32;3.72;;;;;;;;;;5019532;28;20035;-78
2021/08/15 05:58:21;;;;;;;5.28;3.00;;;;;;;;;;5036024;28;20044;-78
2021/08/15 06:00:50;;;;;;;7.05;2.97;;;;;;;;;;5036215;28;20049;-78
2021/08/15 06:03:15;;;;;;;5.07;2.80;;;;;;;;;;5052273;28;20053;-78
2021/08/15 06:05:40;;;;;;;5.47;2.83;;;;;;;;;;5052743;28;20037;-78
2021/08/15 06:08:06;;;;;;;5.05;3.13;;;;;;;;;;5035810;28;20044;-78
2021/08/15 06:10:32;;;;;;;5.32;3.03;;;;;;;;;;5052278;28;20128;-78
2021/08/15 06:12:58;;;;;;;6.28;2.65;;;;;;;;;;5021813;28;20415;-80
2021/08/15 06:15:25;;;;;;;5.97;2.53;;;;;;;;;;5039864;28;20040;-80
2021/08/15 06:17:51;;;;;;;6.22;2.90;;;;;;;;;;5035579;28;20036;-78
2021/08/15 06:20:17;;;;;;;5.30;2.78;;;;;;;;;;5037808;28;20075;-78
2021/08/15 06:22:44;;;;;;;6.25;3.33;;;;;;;;;;5038436;28;20142;-79
2021/08/15 06:25:10;;;;;;;10.27;4.70;;;;;;;;;;5039244;28;20452;-80
2021/08/15 06:27:36;;;;;;;7.18;4.50;;;;;;;;;;5014471;28;20468;-79
2021/08/15 06:30:02;;;;;;;7.53;5.13;;;;;;;;;;5019265;28;20119;-78
2021/08/15 06:32:28;;;;;;;9.38;6.43;;;;;;;;;;5025424;28;20028;-78
2021/08/15 06:34:54;;;;;;;11.07;5.93;;;;;;;;;;5052743;28;20108;-78
2021/08/15 06:37:19;;;;;;;10.68;7.18;;;;;;;;;;5036653;28;20033;-79
2021/08/15 06:39:45;;;;;;;10.93;6.82;;;;;;;;;;5037243;28;20041;-79
2021/08/15 06:42:10;;;;;;;10.18;6.80;;;;;;;;;;5053537;28;20036;-79
2021/08/15 06:44:37;;;;;;;9.65;5.47;;;;;;;;;;5037824;28;20103;-79
2021/08/15 06:47:05;;;;;;;8.45;3.80;;;;;;;;;;5020401;28;20418;-78
2021/08/15 06:49:31;;;;;;;5.00;2.95;;;;;;;;;;5053143;28;20494;-79
2021/08/15 06:51:57;;;;;;;5.18;3.10;;;;;;;;;;5038299;28;20047;-79
2021/08/15 06:54:23;;;;;;;7.00;2.85;;;;;;;;;;5071077;28;20025;-79
2021/08/15 06:56:48;;;;;;;7.05;2.63;;;;;;;;;;5036992;28;20116;-79
2021/08/15 06:59:14;;;;;;;6.88;3.25;;;;;;;;;;5035729;28;20143;-79
2021/08/15 07:01:39;;;;;;;6.45;3.33;;;;;;;;;;5052993;28;20426;-79
2021/08/15 07:04:05;;;;;;;6.03;2.92;;;;;;;;;;5053160;28;20032;-78
2021/08/15 07:06:30;;;;;;;6.60;3.22;;;;;;;;;;5036952;28;20052;-79
2021/08/15 07:08:56;;;;;;;4.88;3.03;;;;;;;;;;5053502;28;20036;-77
2021/08/15 07:11:21;;;;;;;4.78;2.80;;;;;;;;;;5035071;28;20105;-77
2021/08/15 07:13:55;;;;;;;6.55;2.85;;;;;;;;;;5031273;28;20071;-77
2021/08/15 07:16:21;;;;;;;5.90;2.85;;;;;;;;;;5017372;28;20029;-78
2021/08/15 07:18:46;;;;;;;4.88;2.88;;;;;;;;;;5051237;28;20037;-77
2021/08/15 07:21:14;;;;;;;5.38;2.75;;;;;;;;;;5034109;28;20517;-77
2021/08/15 07:23:39;;;;;;;5.75;2.88;;;;;;;;;;5018254;28;20033;-77
2021/08/15 07:26:05;;;;;;;6.65;3.20;;;;;;;;;;5050770;28;20384;-77
2021/08/15 07:28:30;;;;;;;6.57;3.42;;;;;;;;;;5051139;28;20557;-77
2021/08/15 07:30:56;;;;;;;6.13;2.83;;;;;;;;;;5036020;28;20039;-77
2021/08/15 07:33:21;;;;;;;7.05;2.40;;;;;;;;;;5051154;28;20121;-77
2021/08/15 07:35:47;;;;;;;5.75;2.58;;;;;;;;;;5063830;28;20052;-77
2021/08/15 07:38:12;;;;;;;6.32;3.10;;;;;;;;;;5052835;28;20059;-77
2021/08/15 07:40:37;;;;;;;5.45;2.88;;;;;;;;;;5036061;28;20051;-77
2021/08/15 07:43:03;;;;;;;5.72;2.72;;;;;;;;;;5050472;28;20104;-77
2021/08/15 07:45:31;;;;;;;4.65;2.45;;;;;;;;;;5050353;28;20491;-77
2021/08/15 07:47:56;;;;;;;6.00;2.30;;;;;;;;;;5045777;28;20391;-77
2021/08/15 07:50:22;;;;;;;6.05;2.30;;;;;;;;;;5053955;28;20033;-77
2021/08/15 07:52:47;;;;;;;5.30;2.50;;;;;;;;;;5029923;28;20039;-77
2021/08/15 07:55:12;;;;;;;4.13;2.00;;;;;;;;;;5063094;28;20040;-77
2021/08/15 07:57:40;;;;;;;4.43;2.53;;;;;;;;;;5049542;28;20040;-77
2021/08/15 08:00:07;;;;;;;3.72;2.10;;;;;;;;;;5049972;28;20037;-77
2021/08/15 08:02:33;;;;;;;4.80;1.88;;;;;;;;;;5033931;28;20087;-77
2021/08/15 08:04:58;;;;;;;4.45;2.10;;;;;;;;;;5033596;28;20033;-77
2021/08/15 08:07:24;;;;;;;4.38;2.63;;;;;;;;;;5033345;28;20040;-77
2021/08/15 08:09:50;;;;;;;4.68;2.30;;;;;;;;;;5033770;28;20041;-77
2021/08/15 08:12:16;;;;;;;6.07;2.40;;;;;;;;;;5057305;28;20047;-77
2021/08/15 08:14:42;;;;;;;5.85;2.53;;;;;;;;;;5053195;28;20028;-77
2021/08/15 08:17:07;;;;;;;6.28;2.33;;;;;;;;;;5068932;28;20407;-77
2021/08/15 08:19:33;;;;;;;3.92;2.17;;;;;;;;;;5033556;28;20112;-77
2021/08/15 08:21:59;;;;;;;5.93;2.80;;;;;;;;;;5038190;28;20041;-77
2021/08/15 08:24:24;;;;;;;5.38;2.55;;;;;;;;;;5050083;28;20036;-77
2021/08/15 08:26:50;;;;;;;4.80;3.10;;;;;;;;;;5036584;28;20037;-77
2021/08/15 08:29:15;;;;;;;5.57;2.60;;;;;;;;;;5053461;28;20044;-77
2021/08/15 08:31:41;;;;;;;8.80;2.92;;;;;;;;;;5053721;28;20032;-77
2021/08/15 08:34:06;;;;;;;5.20;2.40;;;;;;;;;;5069893;28;20597;-77
2021/08/15 08:36:31;;;;;;;4.35;2.63;;;;;;;;;;5050619;28;20032;-77
2021/08/15 08:38:57;;;;;;;4.22;2.83;;;;;;;;;;5054178;28;20505;-77
2021/08/15 08:41:30;;;;;;;7.00;3.00;;;;;;;;;;5065650;28;20548;-77
2021/08/15 08:44:00;;;;;;;6.55;2.38;;;;;;;;;;5049583;28;20045;-77
2021/08/15 08:46:26;;;;;;;6.72;2.75;;;;;;;;;;5050255;28;20100;-77
2021/08/15 08:48:51;;;;;;;7.03;3.03;;;;;;;;;;5061234;28;20063;-77
2021/08/15 08:51:20;;;;;;;7.32;2.40;;;;;;;;;;5040264;28;20055;-77
2021/08/15 08:53:47;;;;;;;7.03;2.75;;;;;;;;;;5064477;28;20040;-77
2021/08/15 08:56:12;;;;;;;5.88;2.33;;;;;;;;;;5033210;28;20407;-77
2021/08/15 08:58:38;;;;;;;5.63;2.72;;;;;;;;;;5016408;28;20037;-77
2021/08/15 09:01:03;;;;;;;6.45;3.88;;;;;;;;;;5033307;28;20029;-77
2021/08/15 09:03:28;;;;;;;5.15;3.20;;;;;;;;;;5035948;28;20036;-77
2021/08/15 09:05:54;;;;;;;5.00;3.25;;;;;;;;;;5048620;28;20036;-78
2021/08/15 09:08:24;;;;;;;6.75;2.90;;;;;;;;;;5038983;28;20549;-78
2021/08/15 09:10:50;;;;;;;4.95;2.53;;;;;;;;;;5037300;28;20120;-78
2021/08/15 09:13:15;;;;;;;4.45;2.38;;;;;;;;;;5026919;28;20037;-78
2021/08/15 09:15:41;;;;;;;7.38;2.90;;;;;;;;;;5052294;28;20040;-80
2021/08/15 09:18:06;;;;;;;5.30;2.22;;;;;;;;;;5033028;28;20037;-80
2021/08/15 09:20:32;;;;;;;6.43;2.40;;;;;;;;;;5033192;28;20491;-80
2021/08/15 09:22:57;;;;;;;7.30;2.03;;;;;;;;;;5065133;28;20032;-80
2021/08/15 09:25:23;;;;;;;4.60;2.47;;;;;;;;;;5052737;28;20043;-80
2021/08/15 09:27:56;;;;;;;4.38;2.20;;;;;;;;;;5052667;28;20560;-80
2021/08/15 09:30:28;;;;;;;7.07;2.60;;;;;;;;;;5053113;28;20110;-80
2021/08/15 09:33:02;;;;;;;4.72;2.50;;;;;;;;;;5025606;28;20041;-80
2021/08/15 09:35:36;;;;;;;5.28;2.20;;;;;;;;;;5044705;28;20048;-79
2021/08/15 09:38:01;;;;;;;6.05;2.22;;;;;;;;;;5054169;28;20055;-80
2021/08/15 09:40:34;;;;;;;10.40;2.17;;;;;;;;;;5062931;28;20041;-79
2021/08/15 09:43:00;;;;;;;7.30;2.47;;;;;;;;;;5038121;28;20041;-80
2021/08/15 09:45:48;;;;;;;8.50;2.60;;;;;;;;;;5021410;28;20052;-83
2021/08/15 09:48:21;;;;;;;6.65;2.05;;;;;;;;;;5023509;28;20498;-83
2021/08/15 09:51:08;;;;;;;7.05;2.47;;;;;;;;;;5023224;28;20438;-81
2021/08/15 09:53:35;;;;;;;6.72;2.40;;;;;;;;;;5036780;28;20033;-79
2021/08/15 09:56:01;;;;;;;4.93;2.38;;;;;;;;;;5003143;28;20040;-79
2021/08/15 09:58:27;;;;;;;3.80;1.80;;;;;;;;;;5036072;28;20044;-79
2021/08/15 10:00:53;;;;;;;8.63;2.42;;;;;;;;;;5035962;28;20119;-79
2021/08/15 10:03:18;;;;;;;7.72;2.17;;;;;;;;;;5019377;28;20032;-79
2021/08/15 10:05:44;;;;;;;5.90;2.10;;;;;;;;;;5035927;28;20530;-79
2021/08/15 10:08:09;;;;;;;4.85;1.95;;;;;;;;;;5035842;28;20033;-80
2021/08/15 10:10:38;;;;;;;5.43;2.08;;;;;;;;;;5035471;28;20041;-79
2021/08/15 10:13:04;;;;;;;3.90;1.85;;;;;;;;;;5003288;28;20037;-79
2021/08/15 10:15:31;;;;;;;5.07;2.20;;;;;;;;;;5055850;28;20490;-79
2021/08/15 10:17:57;;;;;;;3.35;1.38;;;;;;;;;;5039672;28;20037;-79
2021/08/15 10:20:25;;;;;;;4.88;1.75;;;;;;;;;;5054510;28;20410;-80
2021/08/15 10:22:51;;;;;;;3.42;1.67;;;;;;;;;;5055365;28;20036;-79
2021/08/15 10:25:40;;;;;;;4.10;2.13;;;;;;;;;;5055175;28;20216;-80
2021/08/15 10:28:06;;;;;;;3.63;1.88;;;;;;;;;;5072160;28;20054;-79
2021/08/15 10:30:31;;;;;;;3.67;1.75;;;;;;;;;;5038653;28;20032;-79
2021/08/15 10:32:57;;;;;;;3.03;1.40;;;;;;;;;;5055570;28;20044;-79
2021/08/15 10:35:27;;;;;;;4.53;1.45;;;;;;;;;;5071968;28;20418;-79
2021/08/15 10:37:53;;;;;;;5.28;1.52;;;;;;;;;;5038783;28;20036;-79
2021/08/15 10:43:06;;;;;;;4.90;2.10;;;;;;;;;;5071877;28;20033;-79
2021/08/15 10:45:32;;;;;;;4.32;1.60;;;;;;;;;;5055192;28;20044;-80
2021/08/15 10:48:04;;;;;;;4.40;1.73;;;;;;;;;;5051877;28;20117;-79
2021/08/15 10:50:49;;;;;;;3.58;1.52;;;;;;;;;;5051628;28;20072;-79
2021/08/15 10:53:26;;;;;;;3.85;1.83;;;;;;;;;;5034447;28;20069;-79
2021/08/15 10:56:03;;;;;;;5.78;1.75;;;;;;;;;;5035136;28;20041;-79
2021/08/15 10:58:44;;;;;;;3.83;2.05;;;;;;;;;;5035410;28;20025;-79
2021/08/15 11:01:13;;;;;;;2.95;1.42;;;;;;;;;;5051671;28;20025;-79
2021/08/15 11:03:59;;;;;;;4.65;1.83;;;;;;;;;;5034734;28;20091;-79
2021/08/15 11:06:31;;;;;;;3.47;1.83;;;;;;;;;;5051476;28;20037;-79
2021/08/15 11:09:01;;;;;;;3.40;1.52;;;;;;;;;;5051113;28;20582;-79
2021/08/15 11:11:30;;;;;;;3.22;1.40;;;;;;;;;;5018288;28;20095;-79
2021/08/15 11:14:25;;;;;;;4.38;1.38;;;;;;;;;;5058415;28;20021;-79
2021/08/15 11:16:52;;;;;;;4.15;1.73;;;;;;;;;;5058074;28;20045;-79
2021/08/15 11:19:17;;;;;;;3.03;1.35;;;;;;;;;;5054391;28;20068;-79
2021/08/15 11:22:01;;;;;;;5.68;1.75;;;;;;;;;;5070736;28;20044;-79
2021/08/15 11:24:27;;;;;;;3.15;1.55;;;;;;;;;;5070475;28;20112;-79
2021/08/15 11:26:53;;;;;;;3.58;1.67;;;;;;;;;;5038073;28;20036;-80
2021/08/15 11:29:19;;;;;;;2.65;1.40;;;;;;;;;;5038009;28;20105;-79
2021/08/15 11:31:49;;;;;;;3.65;1.40;;;;;;;;;;5037643;28;20060;-79
2021/08/15 11:34:14;;;;;;;2.20;1.15;;;;;;;;;;5054633;28;20402;-79
2021/08/15 11:36:39;;;;;;;5.07;1.52;;;;;;;;;;5020709;28;20036;-79
2021/08/15 11:39:06;;;;;;;2.95;1.40;;;;;;;;;;5070507;28;20036;-80
2021/08/15 11:41:33;;;;;;;2.40;1.30;;;;;;;;;;5038198;28;20040;-79
2021/08/15 11:43:58;;;;;;;2.58;1.35;;;;;;;;;;5037611;28;20039;-79
2021/08/15 11:46:24;;;;;;;3.15;1.50;;;;;;;;;;5050846;28;20398;-79
2021/08/15 11:48:49;;;;;;;2.30;1.20;;;;;;;;;;5046488;28;20048;-79
2021/08/15 11:51:15;;;;;;;3.63;1.77;;;;;;;;;;5017048;28;20041;-79
2021/08/15 11:53:43;;;;;;;4.70;1.98;;;;;;;;;;5033495;28;20044;-79
2021/08/15 11:56:10;;;;;;;2.70;1.48;;;;;;;;;;5018451;28;20044;-79
2021/08/15 11:58:45;;;;;;;3.00;1.52;;;;;;;;;;5050844;28;20040;-79
2021/08/15 12:01:11;;;;;;;3.75;1.58;;;;;;;;;;5017453;28;20035;-79
2021/08/15 12:03:36;;;;;;;3.60;1.63;;;;;;;;;;5001235;28;20096;-79
2021/08/15 12:06:03;;;;;;;3.28;2.00;;;;;;;;;;5033205;28;20090;-79
2021/08/15 12:08:33;;;;;;;3.25;1.70;;;;;;;;;;5017506;28;20025;-79
2021/08/15 12:10:58;;;;;;;2.80;1.40;;;;;;;;;;5034264;28;20045;-80
2021/08/15 12:13:37;;;;;;;3.15;1.40;;;;;;;;;;5020176;28;20032;-79
2021/08/15 12:16:02;;;;;;;3.85;1.30;;;;;;;;;;5055068;28;20037;-79
2021/08/15 12:18:32;;;;;;;3.95;1.67;;;;;;;;;;5072040;28;20059;-79
2021/08/15 12:20:59;;;;;;;3.35;1.75;;;;;;;;;;5069907;28;20045;-79
2021/08/15 12:23:24;;;;;;;3.67;1.75;;;;;;;;;;5053657;28;20032;-79
2021/08/15 12:26:25;;;;;;;3.05;1.60;;;;;;;;;;5037002;28;20051;-79
2021/08/15 12:28:54;;;;;;;4.13;1.52;;;;;;;;;;5021722;28;20058;-79
2021/08/15 12:31:24;;;;;;;4.55;1.70;;;;;;;;;;5053636;28;20043;-79
2021/08/15 12:33:50;;;;;;;4.25;1.70;;;;;;;;;;5053723;28;20171;-79
2021/08/15 12:36:21;;;;;;;3.22;1.42;;;;;;;;;;5036583;28;20036;-79
2021/08/15 12:38:46;;;;;;;3.83;1.95;;;;;;;;;;5037237;28;20041;-80
2021/08/15 12:41:29;;;;;;;3.38;1.90;;;;;;;;;;5053397;28;20418;-80
2021/08/15 12:44:11;;;;;;;2.30;1.42;;;;;;;;;;5056395;28;20530;-79
2021/08/15 12:46:37;;;;;;;5.90;2.05;;;;;;;;;;5040803;28;20496;-79
2021/08/15 12:49:16;;;;;;;3.55;1.63;;;;;;;;;;5054034;28;20041;-80
2021/08/15 12:51:42;;;;;;;3.88;1.85;;;;;;;;;;5020568;28;20119;-80
2021/08/15 12:54:07;;;;;;;3.42;1.58;;;;;;;;;;5037321;28;20040;-79
2021/08/15 12:56:32;;;;;;;3.47;1.50;;;;;;;;;;5037124;28;20517;-79
2021/08/15 12:58:58;;;;;;;3.53;1.40;;;;;;;;;;5054236;28;20558;-80
2021/08/15 13:01:23;;;;;;;2.97;1.73;;;;;;;;;;5020817;28;20033;-79
2021/08/15 13:03:49;;;;;;;3.97;1.73;;;;;;;;;;5037046;28;20029;-80
2021/08/15 13:06:21;;;;;;;3.38;1.60;;;;;;;;;;5053463;28;20045;-79
2021/08/15 13:08:47;;;;;;;3.67;1.30;;;;;;;;;;5020325;28;20040;-79
2021/08/15 13:11:12;;;;;;;4.10;1.77;;;;;;;;;;5036805;28;20431;-79
2021/08/15 13:13:38;;;;;;;3.15;1.60;;;;;;;;;;5038226;28;20480;-80
2021/08/15 13:16:03;;;;;;;3.88;1.83;;;;;;;;;;5070139;28;20033;-80
2021/08/15 13:18:29;;;;;;;2.70;1.30;;;;;;;;;;5069784;28;20025;-80
2021/08/15 13:20:54;;;;;;;3.15;1.80;;;;;;;;;;5036360;28;20475;-79
2021/08/15 13:23:19;;;;;;;3.83;2.03;;;;;;;;;;5054109;28;20545;-79
2021/08/15 13:25:49;;;;;;;2.83;1.40;;;;;;;;;;5036578;28;20033;-80
2021/08/15 13:28:19;;;;;;;3.53;1.80;;;;;;;;;;5037445;28;20186;-79
2021/08/15 13:30:44;;;;;;;2.97;1.65;;;;;;;;;;5036871;28;20041;-79
2021/08/15 13:33:10;;;;;;;3.72;2.05;;;;;;;;;;5053420;28;20511;-79
2021/08/15 13:35:36;;;;;;;3.25;1.52;;;;;;;;;;5019871;28;20128;-79
2021/08/15 13:38:02;;;;;;;5.53;1.67;;;;;;;;;;5053023;28;20033;-79
2021/08/15 13:40:28;;;;;;;3.90;1.55;;;;;;;;;;5036484;28;20052;-79
2021/08/15 13:42:53;;;;;;;4.60;2.03;;;;;;;;;;5036315;28;20029;-79
2021/08/15 13:45:18;;;;;;;3.78;1.83;;;;;;;;;;5036284;28;20120;-79
2021/08/15 13:47:45;;;;;;;2.90;1.58;;;;;;;;;;5035994;28;20082;-79
2021/08/15 13:50:11;;;;;;;4.28;1.33;;;;;;;;;;5052519;28;20487;-80
2021/08/15 13:52:37;;;;;;;4.70;1.52;;;;;;;;;;5035872;28;20037;-79
2021/08/15 13:55:02;;;;;;;2.75;1.27;;;;;;;;;;5035071;28;20045;-79
2021/08/15 13:57:28;;;;;;;2.83;1.33;;;;;;;;;;5019969;28;20044;-79
2021/08/15 13:59:53;;;;;;;3.75;1.65;;;;;;;;;;5019796;28;20505;-79
2021/08/15 14:02:20;;;;;;;3.38;1.70;;;;;;;;;;5052586;28;20037;-79
2021/08/15 14:04:46;;;;;;;2.83;1.35;;;;;;;;;;5019398;28;20483;-79
2021/08/15 14:07:12;;;;;;;3.90;1.50;;;;;;;;;;5002934;28;20029;-79
2021/08/15 14:09:37;;;;;;;2.78;1.10;;;;;;;;;;5003123;28;20045;-80
2021/08/15 14:12:03;;;;;;;2.42;1.33;;;;;;;;;;5035786;28;20033;-79
2021/08/15 14:14:29;;;;;;;2.75;1.60;;;;;;;;;;5047756;28;20037;-79
2021/08/15 14:16:54;;;;;;;4.85;1.40;;;;;;;;;;5072236;28;20040;-79
2021/08/15 14:19:20;;;;;;;3.92;1.80;;;;;;;;;;5038942;28;20043;-80
2021/08/15 14:21:45;;;;;;;3.45;1.60;;;;;;;;;;5071953;28;20032;-79
2021/08/15 14:24:11;;;;;;;3.00;1.48;;;;;;;;;;5038888;28;20380;-79
2021/08/15 14:26:36;;;;;;;2.25;1.35;;;;;;;;;;5055945;28;20032;-79
2021/08/15 14:29:01;;;;;;;3.65;1.58;;;;;;;;;;5038749;28;20121;-79
2021/08/15 14:31:27;;;;;;;3.05;1.50;;;;;;;;;;5055150;28;20093;-80
2021/08/15 14:33:52;;;;;;;3.42;1.30;;;;;;;;;;5038708;28;20040;-79
2021/08/15 14:36:18;;;;;;;3.55;1.77;;;;;;;;;;5055372;28;20082;-79
2021/08/15 14:38:44;;;;;;;2.97;1.60;;;;;;;;;;5038393;28;20036;-79
2021/08/15 14:41:10;;;;;;;2.67;1.50;;;;;;;;;;5055246;28;20045;-79
2021/08/15 14:43:37;;;;;;;2.55;1.50;;;;;;;;;;5055278;28;20050;-79